Time;durP1;ratioP1;P1;durP2;ratioP2;P2;SDS_P1;SDS_P2;PMS_P1;PMS_P2;Temp;Humidity;BMP_temperature;BMP_pressure;BME280_temperature;BME280_humidity;BME280_pressure;Samples;Min_cycle;Max_cycle;Signal;HPM_P1;HPM_P2
2023/12/21 00:01:36;;;;;;;1.10;0.63;;;20.20;53.30;;;;;;4983559;28;20082;-67
2023/12/21 00:04:03;;;;;;;0.85;0.70;;;20.20;53.20;;;;;;4998482;28;20113;-66
2023/12/21 00:06:28;;;;;;;1.15;0.70;;;20.20;53.20;;;;;;4983526;28;20490;-66
2023/12/21 00:08:54;;;;;;;1.00;0.60;;;20.20;53.20;;;;;;4998944;28;20039;-66
2023/12/21 00:11:20;;;;;;;0.90;0.65;;;20.20;53.20;;;;;;4983309;28;20395;-66
2023/12/21 00:13:45;;;;;;;1.85;0.68;;;20.20;53.20;;;;;;4983822;28;20136;-67
2023/12/21 00:16:12;;;;;;;1.55;0.70;;;20.20;53.20;;;;;;4998101;28;20034;-66
2023/12/21 00:18:38;;;;;;;1.33;0.80;;;20.10;53.10;;;;;;4982415;28;20031;-68
2023/12/21 00:21:03;;;;;;;1.23;0.63;;;20.10;53.10;;;;;;4984616;28;20121;-69
2023/12/21 00:23:29;;;;;;;1.15;0.60;;;20.10;53.10;;;;;;4982894;28;20069;-69
2023/12/21 00:25:55;;;;;;;0.93;0.60;;;20.10;53.10;;;;;;4976985;28;20077;-69
2023/12/21 00:28:20;;;;;;;1.17;0.70;;;20.10;53.10;;;;;;4983619;28;20464;-69
2023/12/21 00:30:46;;;;;;;1.10;0.60;;;20.10;53.10;;;;;;4982751;28;20065;-73
2023/12/21 00:33:11;;;;;;;1.10;0.60;;;20.10;53.10;;;;;;4984149;28;20864;-73
2023/12/21 00:35:37;;;;;;;0.98;0.60;;;20.10;53.10;;;;;;4984031;28;20038;-72
2023/12/21 00:38:03;;;;;;;0.82;0.55;;;20.10;53.10;;;;;;4982384;28;20547;-73
2023/12/21 00:40:28;;;;;;;1.15;0.63;;;20.10;53.10;;;;;;4982545;28;20030;-72
2023/12/21 00:42:54;;;;;;;1.40;0.60;;;20.10;53.10;;;;;;4982472;28;20062;-72
2023/12/21 00:45:20;;;;;;;1.30;0.68;;;20.10;53.60;;;;;;4983636;28;20491;-73
2023/12/21 00:47:45;;;;;;;0.68;0.60;;;20.10;53.00;;;;;;4983266;28;20077;-73
2023/12/21 00:50:11;;;;;;;0.93;0.57;;;20.00;53.00;;;;;;4983614;28;20053;-73
2023/12/21 00:52:37;;;;;;;1.15;0.60;;;20.00;53.00;;;;;;4981535;28;20034;-72
2023/12/21 00:55:03;;;;;;;0.70;0.52;;;20.10;53.00;;;;;;4982484;28;20058;-72
2023/12/21 00:57:29;;;;;;;0.70;0.55;;;20.00;52.90;;;;;;4983783;28;20022;-72
2023/12/21 00:59:54;;;;;;;0.88;0.63;;;20.00;53.00;;;;;;4980397;28;20035;-73
2023/12/21 01:02:20;;;;;;;0.93;0.57;;;20.00;53.00;;;;;;4981362;28;20076;-72
2023/12/21 01:04:46;;;;;;;0.90;0.60;;;20.00;53.00;;;;;;4979476;28;20037;-72
2023/12/21 01:07:11;;;;;;;0.60;0.50;;;20.00;52.90;;;;;;4979414;28;20058;-72
2023/12/21 01:09:38;;;;;;;0.77;0.70;;;20.00;52.90;;;;;;4981252;28;20026;-72
2023/12/21 01:12:05;;;;;;;0.70;0.60;;;20.00;53.00;;;;;;4994492;28;20061;-72
2023/12/21 01:14:31;;;;;;;0.60;0.50;;;20.00;52.90;;;;;;4981236;28;20432;-72
2023/12/21 01:16:57;;;;;;;0.70;0.50;;;19.90;52.90;;;;;;4982075;28;20058;-73
2023/12/21 01:19:23;;;;;;;1.13;0.60;;;20.00;52.90;;;;;;4979940;28;20332;-74
2023/12/21 01:21:48;;;;;;;0.63;0.50;;;19.90;52.90;;;;;;4980742;28;20022;-73
2023/12/21 01:24:14;;;;;;;1.13;0.50;;;20.00;52.90;;;;;;4982138;28;20038;-72
2023/12/21 01:26:40;;;;;;;0.68;0.50;;;19.90;52.90;;;;;;4981701;28;20390;-72
2023/12/21 01:29:05;;;;;;;0.90;0.50;;;19.90;52.90;;;;;;4979556;28;20089;-66
2023/12/21 01:31:31;;;;;;;0.95;0.60;;;19.90;52.80;;;;;;4980962;28;20022;-67
2023/12/21 01:33:57;;;;;;;0.65;0.60;;;19.90;52.90;;;;;;4981831;28;20042;-66
2023/12/21 01:36:22;;;;;;;0.73;0.50;;;19.90;52.90;;;;;;4979456;28;20514;-67
2023/12/21 01:38:48;;;;;;;1.38;0.50;;;19.90;52.80;;;;;;4982048;28;20117;-67
2023/12/21 01:41:13;;;;;;;0.52;0.50;;;19.90;52.80;;;;;;4981683;28;20084;-72
2023/12/21 01:43:39;;;;;;;1.15;0.52;;;19.90;52.90;;;;;;4979656;28;20586;-72
2023/12/21 01:46:05;;;;;;;1.23;0.60;;;19.90;52.80;;;;;;4980558;28;20035;-72
2023/12/21 01:48:31;;;;;;;1.48;0.70;;;19.80;52.80;;;;;;4981162;28;20121;-73
2023/12/21 01:51:01;;;;;;;0.93;0.50;;;19.90;52.80;;;;;;4981711;28;20482;-72
2023/12/21 01:53:28;;;;;;;0.73;0.50;;;19.80;52.70;;;;;;4980683;28;20050;-72
2023/12/21 01:55:55;;;;;;;0.60;0.50;;;19.80;52.70;;;;;;4979336;28;20042;-73
2023/12/21 01:58:20;;;;;;;0.50;0.32;;;19.90;52.80;;;;;;4992964;28;20279;-72
2023/12/21 02:00:46;;;;;;;0.65;0.50;;;19.80;52.70;;;;;;4978177;28;20479;-72
2023/12/21 02:03:12;;;;;;;0.63;0.40;;;19.80;52.70;;;;;;4981382;28;20030;-72
2023/12/21 02:05:37;;;;;;;0.98;0.60;;;19.80;52.70;;;;;;4979892;28;20027;-73
2023/12/21 02:08:04;;;;;;;0.95;0.65;;;19.80;52.70;;;;;;4978465;28;20144;-72
2023/12/21 02:10:30;;;;;;;1.05;0.50;;;19.80;52.70;;;;;;4980919;28;20073;-72
2023/12/21 02:12:56;;;;;;;0.43;0.40;;;19.80;52.70;;;;;;4980474;28;20023;-72
2023/12/21 02:15:22;;;;;;;0.40;0.40;;;19.80;52.70;;;;;;4980453;28;20029;-73
2023/12/21 02:17:48;;;;;;;1.33;0.80;;;19.70;52.60;;;;;;4979677;28;20400;-72
2023/12/21 02:20:15;;;;;;;0.57;0.50;;;19.80;52.70;;;;;;4995073;28;20038;-73
2023/12/21 02:22:42;;;;;;;1.13;0.60;;;19.70;52.70;;;;;;4979842;28;20057;-73
2023/12/21 02:25:08;;;;;;;0.40;0.40;;;19.70;52.70;;;;;;4995052;28;20398;-72
2023/12/21 02:27:34;;;;;;;0.80;0.57;;;19.70;52.70;;;;;;4994470;28;20909;-72
2023/12/21 02:30:00;;;;;;;0.75;0.50;;;19.70;52.70;;;;;;4976348;28;20022;-73
2023/12/21 02:32:25;;;;;;;0.75;0.60;;;19.80;52.80;;;;;;4996574;28;20034;-73
2023/12/21 02:34:51;;;;;;;0.80;0.47;;;19.70;52.70;;;;;;4981516;28;20475;-72
2023/12/21 02:37:18;;;;;;;0.88;0.57;;;19.70;52.70;;;;;;4981943;28;20101;-72
2023/12/21 02:39:44;;;;;;;1.05;0.60;;;19.70;52.80;;;;;;4979627;28;20506;-73
2023/12/21 02:42:09;;;;;;;0.40;0.40;;;19.70;52.70;;;;;;4978392;28;20039;-72
2023/12/21 02:44:35;;;;;;;0.73;0.50;;;19.70;52.70;;;;;;4979022;28;20040;-72
2023/12/21 02:47:01;;;;;;;0.65;0.50;;;19.70;52.70;;;;;;4978134;28;20483;-72
2023/12/21 02:49:27;;;;;;;1.38;0.95;;;19.70;52.60;;;;;;4978522;28;20463;-72
2023/12/21 02:51:52;;;;;;;0.60;0.50;;;19.70;52.60;;;;;;4978566;28;20070;-66
2023/12/21 02:54:18;;;;;;;0.73;0.50;;;19.70;52.60;;;;;;4979444;28;20383;-68
2023/12/21 02:56:43;;;;;;;0.70;0.40;;;19.70;52.60;;;;;;4978583;28;20039;-66
2023/12/21 02:59:09;;;;;;;0.50;0.50;;;19.60;52.50;;;;;;4980193;28;20034;-66
2023/12/21 03:01:42;;;;;;;0.75;0.52;;;19.60;52.50;;;;;;4996510;28;20034;-68
2023/12/21 03:04:12;;;;;;;0.45;0.45;;;19.60;52.50;;;;;;4995436;28;20085;-67
2023/12/21 03:06:38;;;;;;;0.50;0.50;;;19.60;52.60;;;;;;4992628;28;20714;-67
2023/12/21 03:09:04;;;;;;;0.68;0.50;;;19.70;52.60;;;;;;4977763;28;20071;-66
2023/12/21 03:11:29;;;;;;;0.60;0.40;;;19.60;52.50;;;;;;4980141;28;20082;-67
2023/12/21 03:13:55;;;;;;;0.40;0.40;;;19.60;52.60;;;;;;4980495;28;20568;-67
2023/12/21 03:16:21;;;;;;;0.93;0.50;;;19.60;52.60;;;;;;4986051;28;20546;-67
2023/12/21 03:18:47;;;;;;;1.02;0.55;;;19.60;52.60;;;;;;4986812;28;20555;-66
2023/12/21 03:21:15;;;;;;;0.75;0.50;;;19.60;52.60;;;;;;4986045;28;20380;-68
2023/12/21 03:23:41;;;;;;;0.65;0.50;;;19.60;52.60;;;;;;4988244;28;20026;-66
2023/12/21 03:26:09;;;;;;;2.15;0.50;;;19.60;52.60;;;;;;4986381;28;20034;-66
2023/12/21 03:28:35;;;;;;;1.10;0.57;;;19.50;52.50;;;;;;4983975;28;20089;-68
2023/12/21 03:31:01;;;;;;;0.70;0.50;;;19.60;52.60;;;;;;4983841;28;20474;-66
2023/12/21 03:33:27;;;;;;;0.80;0.70;;;19.60;52.60;;;;;;4987082;28;20023;-66
2023/12/21 03:35:53;;;;;;;0.40;0.40;;;19.50;52.50;;;;;;4985790;28;20030;-67
2023/12/21 03:38:18;;;;;;;0.40;0.40;;;19.50;52.50;;;;;;4988304;28;20023;-66
2023/12/21 03:40:44;;;;;;;0.50;0.50;;;19.50;52.50;;;;;;4984040;28;20533;-67
2023/12/21 03:43:13;;;;;;;0.82;0.50;;;19.50;52.50;;;;;;5001025;28;20489;-67
2023/12/21 03:45:39;;;;;;;0.85;0.60;;;19.50;52.50;;;;;;4986099;28;20138;-67
2023/12/21 03:48:08;;;;;;;0.60;0.50;;;19.50;52.50;;;;;;4984498;28;20069;-66
2023/12/21 03:50:34;;;;;;;1.27;0.70;;;19.50;52.50;;;;;;4986755;28;20105;-70
2023/12/21 03:52:59;;;;;;;0.47;0.40;;;19.50;52.60;;;;;;5000937;28;20062;-69
2023/12/21 03:55:25;;;;;;;0.60;0.40;;;19.50;52.60;;;;;;4985629;28;20039;-70
2023/12/21 03:57:50;;;;;;;0.57;0.50;;;19.50;52.60;;;;;;4985409;28;20100;-69
2023/12/21 04:00:18;;;;;;;0.80;0.55;;;19.50;52.60;;;;;;4985505;28;20042;-69
2023/12/21 04:02:44;;;;;;;0.40;0.40;;;19.50;52.60;;;;;;4981361;28;20034;-69
2023/12/21 04:05:10;;;;;;;0.73;0.50;;;19.50;52.60;;;;;;4986858;28;20077;-69
2023/12/21 04:07:36;;;;;;;0.30;0.30;;;19.50;53.10;;;;;;4985246;28;20039;-69
2023/12/21 04:10:02;;;;;;;0.55;0.50;;;19.50;52.60;;;;;;4985824;28;20468;-68
2023/12/21 04:12:27;;;;;;;0.40;0.40;;;19.50;52.60;;;;;;4984787;28;20022;-69
2023/12/21 04:14:53;;;;;;;0.52;0.40;;;19.50;52.60;;;;;;4982313;28;20038;-69
2023/12/21 04:17:19;;;;;;;0.52;0.40;;;19.50;52.60;;;;;;4986447;28;20483;-68
2023/12/21 04:19:44;;;;;;;0.60;0.50;;;19.50;52.60;;;;;;4986458;28;20042;-70
2023/12/21 04:22:10;;;;;;;0.80;0.50;;;19.40;52.60;;;;;;4987135;28;20130;-69
2023/12/21 04:24:36;;;;;;;0.90;0.50;;;19.40;52.60;;;;;;4984932;28;20590;-69
2023/12/21 04:27:01;;;;;;;0.85;0.50;;;19.40;53.10;;;;;;4982545;28;20317;-70
2023/12/21 04:29:27;;;;;;;0.43;0.40;;;19.40;52.60;;;;;;4982894;28;20058;-69
2023/12/21 04:31:52;;;;;;;0.40;0.40;;;19.40;52.60;;;;;;4980591;28;20026;-69
2023/12/21 04:34:18;;;;;;;0.60;0.50;;;19.40;52.60;;;;;;4983196;28;20029;-69
2023/12/21 04:36:43;;;;;;;0.32;0.32;;;19.40;52.60;;;;;;4983347;28;20088;-69
2023/12/21 04:39:09;;;;;;;0.35;0.35;;;19.40;52.60;;;;;;4983219;28;20030;-69
2023/12/21 04:41:35;;;;;;;0.95;0.40;;;19.40;53.20;;;;;;4984359;28;20030;-69
2023/12/21 04:44:00;;;;;;;0.55;0.40;;;19.40;52.70;;;;;;4994768;28;20046;-69
2023/12/21 04:46:26;;;;;;;0.45;0.40;;;19.40;52.70;;;;;;4995440;28;20536;-69
2023/12/21 04:48:51;;;;;;;0.55;0.50;;;19.40;52.70;;;;;;4981307;28;20412;-69
2023/12/21 04:51:17;;;;;;;0.45;0.40;;;19.40;52.70;;;;;;4984454;28;20034;-68
2023/12/21 04:53:43;;;;;;;0.40;0.40;;;19.30;52.60;;;;;;4980783;28;20121;-69
2023/12/21 04:56:09;;;;;;;0.82;0.50;;;19.30;52.60;;;;;;4982855;28;20030;-69
2023/12/21 04:58:35;;;;;;;0.40;0.40;;;19.30;52.60;;;;;;4982442;28;20046;-69
2023/12/21 05:01:01;;;;;;;0.50;0.40;;;19.30;52.70;;;;;;4981461;28;20030;-67
2023/12/21 05:03:26;;;;;;;0.98;0.50;;;19.30;53.20;;;;;;4980653;28;20022;-67
2023/12/21 05:05:52;;;;;;;0.68;0.43;;;19.30;52.60;;;;;;4996220;28;20109;-66
2023/12/21 05:08:18;;;;;;;0.40;0.40;;;19.30;52.70;;;;;;4979745;28;20030;-67
2023/12/21 05:10:44;;;;;;;0.50;0.43;;;19.30;52.80;;;;;;4980813;28;20413;-67
2023/12/21 05:13:10;;;;;;;0.30;0.30;;;19.30;52.70;;;;;;4996945;28;20034;-67
2023/12/21 05:15:35;;;;;;;0.55;0.35;;;19.30;52.70;;;;;;4995832;28;20065;-67
2023/12/21 05:18:01;;;;;;;0.40;0.40;;;19.30;52.80;;;;;;4998578;28;20594;-66
2023/12/21 05:20:26;;;;;;;0.30;0.30;;;19.30;52.80;;;;;;4998132;28;20034;-67
2023/12/21 05:22:52;;;;;;;0.73;0.55;;;19.30;52.80;;;;;;4995441;28;20050;-66
2023/12/21 05:25:18;;;;;;;0.50;0.40;;;19.30;52.80;;;;;;4980993;28;20360;-66
2023/12/21 05:27:43;;;;;;;0.50;0.45;;;19.20;52.80;;;;;;4994618;28;20465;-66
2023/12/21 05:30:10;;;;;;;0.32;0.32;;;19.20;52.80;;;;;;4980358;28;20045;-66
2023/12/21 05:32:35;;;;;;;0.45;0.45;;;19.20;52.80;;;;;;4983748;28;20422;-66
2023/12/21 05:35:02;;;;;;;0.50;0.40;;;19.20;52.90;;;;;;4981945;28;20030;-66
2023/12/21 05:37:27;;;;;;;0.60;0.40;;;19.20;52.90;;;;;;4980146;28;20122;-67
2023/12/21 05:39:53;;;;;;;0.52;0.30;;;19.20;52.90;;;;;;4996349;28;20045;-67
2023/12/21 05:42:19;;;;;;;0.40;0.40;;;19.20;53.00;;;;;;4980705;28;20026;-67
2023/12/21 05:44:44;;;;;;;0.35;0.35;;;19.20;52.90;;;;;;4978608;28;20486;-66
2023/12/21 05:47:10;;;;;;;0.40;0.40;;;19.20;53.00;;;;;;4996702;28;20033;-66
2023/12/21 05:49:35;;;;;;;0.80;0.50;;;19.20;53.00;;;;;;4979155;28;20100;-67
2023/12/21 05:52:01;;;;;;;0.63;0.40;;;19.20;53.00;;;;;;4995733;28;20031;-66
2023/12/21 05:54:27;;;;;;;0.50;0.45;;;19.20;53.00;;;;;;4981138;28;20034;-65
2023/12/21 05:56:53;;;;;;;0.45;0.40;;;19.20;53.00;;;;;;4981980;28;20034;-66
2023/12/21 05:59:19;;;;;;;0.30;0.30;;;19.20;53.00;;;;;;4994074;28;20478;-66
2023/12/21 06:01:45;;;;;;;0.40;0.40;;;19.20;53.10;;;;;;4995905;28;20081;-66
2023/12/21 06:04:11;;;;;;;0.55;0.30;;;19.20;53.10;;;;;;4979053;28;20023;-66
2023/12/21 06:06:37;;;;;;;0.38;0.38;;;19.20;53.00;;;;;;4980417;28;20039;-66
2023/12/21 06:09:05;;;;;;;0.55;0.40;;;19.20;53.10;;;;;;4978997;28;20026;-65
2023/12/21 06:11:31;;;;;;;0.40;0.40;;;19.20;53.10;;;;;;4981916;28;20108;-65
2023/12/21 06:13:56;;;;;;;0.40;0.40;;;19.20;53.20;;;;;;4980527;28;20035;-65
2023/12/21 06:16:22;;;;;;;0.30;0.30;;;19.20;53.20;;;;;;4976581;28;20521;-68
2023/12/21 06:18:49;;;;;;;0.77;0.50;;;19.20;53.10;;;;;;4979731;28;20031;-67
2023/12/21 06:21:14;;;;;;;0.35;0.32;;;19.20;53.20;;;;;;4978912;28;20058;-69
2023/12/21 06:23:40;;;;;;;0.40;0.40;;;19.10;53.10;;;;;;4979937;28;20069;-69
2023/12/21 06:26:05;;;;;;;0.70;0.47;;;19.10;53.10;;;;;;4993920;28;20161;-69
2023/12/21 06:28:31;;;;;;;0.55;0.40;;;19.20;53.20;;;;;;4994032;28;20086;-69
2023/12/21 06:30:57;;;;;;;0.75;0.50;;;19.10;53.20;;;;;;4978649;28;20395;-70
2023/12/21 06:33:22;;;;;;;0.47;0.47;;;19.10;53.10;;;;;;4980076;28;20022;-70
2023/12/21 06:35:48;;;;;;;0.40;0.40;;;19.10;53.20;;;;;;4980456;28;20054;-70
2023/12/21 06:38:14;;;;;;;0.63;0.50;;;19.10;53.10;;;;;;4980228;28;20027;-70
2023/12/21 06:40:40;;;;;;;0.45;0.40;;;19.10;53.20;;;;;;4977755;28;20034;-71
2023/12/21 06:43:06;;;;;;;0.40;0.40;;;19.10;53.20;;;;;;4980136;28;20030;-70
2023/12/21 06:45:31;;;;;;;0.40;0.40;;;19.10;53.20;;;;;;4977968;28;20424;-70
2023/12/21 06:48:00;;;;;;;0.40;0.40;;;19.10;53.20;;;;;;4980241;28;20126;-71
2023/12/21 06:50:25;;;;;;;0.40;0.40;;;19.10;53.20;;;;;;4979886;28;20038;-70
2023/12/21 06:52:51;;;;;;;0.40;0.40;;;19.10;53.20;;;;;;4982166;28;20049;-70
2023/12/21 06:55:17;;;;;;;0.85;0.55;;;19.10;53.20;;;;;;4979933;28;20041;-70
2023/12/21 06:57:43;;;;;;;0.85;0.55;;;19.10;53.80;;;;;;4993451;28;20042;-70
2023/12/21 07:00:09;;;;;;;1.05;0.55;;;19.20;54.20;;;;;;4979550;28;20027;-70
2023/12/21 07:02:35;;;;;;;0.47;0.40;;;19.50;53.90;;;;;;4981199;28;20548;-69
2023/12/21 07:05:01;;;;;;;0.40;0.40;;;19.70;53.60;;;;;;4978504;28;20045;-70
2023/12/21 07:07:27;;;;;;;0.40;0.40;;;19.80;53.30;;;;;;4980217;28;20063;-70
2023/12/21 07:09:52;;;;;;;0.40;0.40;;;20.00;53.10;;;;;;4981046;28;20030;-70
2023/12/21 07:12:19;;;;;;;1.95;0.50;;;20.20;52.70;;;;;;4978527;28;20402;-70
2023/12/21 07:14:45;;;;;;;0.80;0.40;;;20.30;52.90;;;;;;4991711;28;20050;-69
2023/12/21 07:17:11;;;;;;;0.77;0.40;;;20.40;52.00;;;;;;4979352;28;20073;-70
2023/12/21 07:19:37;;;;;;;0.38;0.38;;;20.50;52.80;;;;;;4994822;28;20455;-69
2023/12/21 07:22:04;;;;;;;0.63;0.43;;;20.70;51.80;;;;;;4994630;28;20113;-69
2023/12/21 07:24:30;;;;;;;0.68;0.50;;;20.80;51.30;;;;;;4978794;28;20038;-69
2023/12/21 07:26:56;;;;;;;1.77;0.60;;;20.90;51.00;;;;;;4979119;28;20427;-69
2023/12/21 07:29:22;;;;;;;0.95;0.55;;;20.90;51.10;;;;;;4979508;28;20065;-70
2023/12/21 07:31:48;;;;;;;0.65;0.52;;;21.00;51.30;;;;;;4993912;28;20121;-68
2023/12/21 07:34:13;;;;;;;0.57;0.57;;;21.10;50.30;;;;;;4994387;28;20086;-68
2023/12/21 07:36:39;;;;;;;0.80;0.57;;;21.20;50.20;;;;;;4981256;28;20037;-66
2023/12/21 07:39:05;;;;;;;0.60;0.40;;;21.40;50.50;;;;;;4980687;28;20503;-66
2023/12/21 07:41:31;;;;;;;0.77;0.50;;;21.50;50.20;;;;;;4979206;28;20027;-69
2023/12/21 07:43:57;;;;;;;0.73;0.43;;;21.60;50.10;;;;;;4979335;28;20034;-69
2023/12/21 07:46:23;;;;;;;0.60;0.50;;;21.70;50.20;;;;;;4978776;28;20027;-70
2023/12/21 07:48:50;;;;;;;0.60;0.47;;;21.80;49.30;;;;;;4978726;28;20026;-70
2023/12/21 07:51:15;;;;;;;0.80;0.60;;;21.70;48.80;;;;;;4979959;28;20022;-69
2023/12/21 07:53:41;;;;;;;0.50;0.50;;;21.60;48.40;;;;;;4980566;28;20034;-69
2023/12/21 07:56:06;;;;;;;0.55;0.40;;;21.60;48.50;;;;;;4979693;28;20033;-70
2023/12/21 07:58:32;;;;;;;0.40;0.40;;;21.50;48.50;;;;;;4987019;28;20487;-69
2023/12/21 08:00:58;;;;;;;0.60;0.50;;;21.50;48.90;;;;;;4989443;28;20037;-69
2023/12/21 08:03:23;;;;;;;0.57;0.45;;;21.50;49.30;;;;;;4992930;28;20045;-69
2023/12/21 08:05:49;;;;;;;0.57;0.50;;;21.50;49.50;;;;;;4986625;28;20030;-69
2023/12/21 08:08:14;;;;;;;0.60;0.47;;;21.50;49.60;;;;;;4983009;28;20030;-69
2023/12/21 08:10:40;;;;;;;0.40;0.40;;;21.40;49.60;;;;;;4982162;28;20046;-69
2023/12/21 08:13:08;;;;;;;0.40;0.40;;;21.50;49.70;;;;;;4982814;28;20031;-69
2023/12/21 08:15:34;;;;;;;0.50;0.50;;;21.40;49.70;;;;;;4984757;28;20023;-68
2023/12/21 08:17:59;;;;;;;0.73;0.30;;;21.50;49.80;;;;;;4993155;28;20468;-69
2023/12/21 08:20:25;;;;;;;0.47;0.40;;;21.50;49.80;;;;;;5006959;28;20038;-69
2023/12/21 08:22:50;;;;;;;0.45;0.45;;;21.40;49.80;;;;;;4988768;28;20114;-68
2023/12/21 08:25:16;;;;;;;0.50;0.40;;;21.40;49.90;;;;;;4989941;28;20422;-69
2023/12/21 08:27:42;;;;;;;0.40;0.40;;;21.50;49.90;;;;;;4987455;28;20036;-69
2023/12/21 08:30:10;;;;;;;0.40;0.40;;;21.50;49.90;;;;;;4992323;28;20027;-67
2023/12/21 08:32:35;;;;;;;0.40;0.40;;;21.50;49.90;;;;;;4986130;28;20050;-67
2023/12/21 08:35:01;;;;;;;0.38;0.38;;;21.50;49.90;;;;;;4990765;28;20048;-67
2023/12/21 08:37:27;;;;;;;0.57;0.50;;;21.50;49.90;;;;;;4990073;28;20097;-66
2023/12/21 08:39:52;;;;;;;0.40;0.40;;;21.50;49.90;;;;;;4988202;28;20030;-66
2023/12/21 08:42:18;;;;;;;0.60;0.40;;;21.50;49.90;;;;;;5008083;28;20449;-69
2023/12/21 08:44:43;;;;;;;0.30;0.30;;;21.50;49.80;;;;;;4990312;28;20030;-71
2023/12/21 08:47:09;;;;;;;0.40;0.40;;;21.50;50.10;;;;;;4981942;28;20065;-71
2023/12/21 08:49:34;;;;;;;0.57;0.50;;;21.50;49.80;;;;;;4982830;28;20123;-70
2023/12/21 08:52:01;;;;;;;0.85;0.47;;;21.50;49.30;;;;;;5000319;28;20027;-67
2023/12/21 08:54:27;;;;;;;0.70;0.50;;;21.50;49.20;;;;;;5000052;28;20027;-67
2023/12/21 08:56:52;;;;;;;0.55;0.30;;;21.50;49.30;;;;;;4987706;28;20033;-67
2023/12/21 08:59:19;;;;;;;0.55;0.40;;;21.50;49.70;;;;;;4988480;28;20470;-66
2023/12/21 09:01:44;;;;;;;0.45;0.32;;;21.40;49.90;;;;;;4981890;28;20050;-67
2023/12/21 09:04:10;;;;;;;0.70;0.40;;;21.50;50.20;;;;;;4995242;28;20045;-67
2023/12/21 09:06:36;;;;;;;0.40;0.40;;;21.50;50.40;;;;;;4989212;28;20023;-66
2023/12/21 09:09:03;;;;;;;0.60;0.40;;;21.50;50.60;;;;;;4981334;28;20026;-67
2023/12/21 09:11:29;;;;;;;0.40;0.40;;;21.50;50.60;;;;;;4980024;28;20031;-67
2023/12/21 09:13:56;;;;;;;0.57;0.40;;;21.50;50.90;;;;;;4983723;28;20030;-66
2023/12/21 09:16:22;;;;;;;0.68;0.38;;;21.60;51.20;;;;;;4991150;28;20050;-65
2023/12/21 09:18:48;;;;;;;0.45;0.40;;;21.50;51.10;;;;;;5007962;28;20859;-66
2023/12/21 09:21:13;;;;;;;0.40;0.40;;;21.50;51.20;;;;;;4991990;28;20096;-67
2023/12/21 09:23:40;;;;;;;0.50;0.30;;;21.60;51.90;;;;;;4994502;28;20026;-68
2023/12/21 09:26:10;;;;;;;0.50;0.40;;;21.60;51.60;;;;;;5002801;28;20046;-66
2023/12/21 09:28:37;;;;;;;0.30;0.30;;;21.60;51.60;;;;;;4992873;28;20018;-66
2023/12/21 09:31:03;;;;;;;0.30;0.30;;;21.60;51.60;;;;;;4994639;28;20046;-67
2023/12/21 09:33:32;;;;;;;0.55;0.40;;;21.60;51.80;;;;;;4988707;28;20440;-66
2023/12/21 09:35:58;;;;;;;0.67;0.40;;;21.60;51.80;;;;;;4985424;28;20434;-66
2023/12/21 09:38:24;;;;;;;0.52;0.40;;;21.60;51.90;;;;;;4990717;28;20022;-67
2023/12/21 09:40:50;;;;;;;0.52;0.40;;;21.70;51.80;;;;;;4983900;28;20022;-67
2023/12/21 09:43:21;;;;;;;0.32;0.32;;;21.70;52.10;;;;;;4989560;28;20034;-70
2023/12/21 09:45:51;;;;;;;0.40;0.40;;;21.70;52.00;;;;;;4992042;28;20078;-69
2023/12/21 09:48:18;;;;;;;0.30;0.30;;;21.70;51.80;;;;;;4989937;28;20136;-69
2023/12/21 09:50:48;;;;;;;0.40;0.40;;;21.70;51.90;;;;;;4979115;28;20038;-69
2023/12/21 09:53:15;;;;;;;0.47;0.40;;;21.70;52.00;;;;;;4991389;28;20030;-70
2023/12/21 09:55:42;;;;;;;0.30;0.30;;;21.70;51.90;;;;;;5004128;28;20475;-69
2023/12/21 09:58:12;;;;;;;0.43;0.40;;;21.70;52.10;;;;;;4991005;28;20034;-69
2023/12/21 10:00:38;;;;;;;0.30;0.30;;;21.70;52.20;;;;;;4990478;28;20034;-69
2023/12/21 10:03:04;;;;;;;0.40;0.40;;;21.70;52.10;;;;;;4998970;28;20042;-69
2023/12/21 10:05:30;;;;;;;0.65;0.40;;;21.80;52.20;;;;;;4990805;28;20038;-68
2023/12/21 10:07:57;;;;;;;0.40;0.40;;;21.80;52.20;;;;;;4991402;28;20035;-68
2023/12/21 10:10:23;;;;;;;0.63;0.40;;;21.80;52.20;;;;;;4988623;28;20090;-69
2023/12/21 10:12:49;;;;;;;0.30;0.30;;;21.80;52.20;;;;;;4986795;28;20083;-69
2023/12/21 10:15:16;;;;;;;0.40;0.30;;;21.80;52.30;;;;;;4983814;28;20451;-69
2023/12/21 10:17:42;;;;;;;0.30;0.30;;;21.80;52.30;;;;;;4984118;28;20038;-69
2023/12/21 10:20:11;;;;;;;0.60;0.30;;;21.80;52.30;;;;;;4985327;28;20467;-69
2023/12/21 10:22:39;;;;;;;0.30;0.30;;;21.90;52.40;;;;;;4984518;28;20392;-69
2023/12/21 10:25:05;;;;;;;0.40;0.40;;;21.80;52.30;;;;;;4981387;28;20034;-69
2023/12/21 10:27:30;;;;;;;0.40;0.30;;;21.90;52.30;;;;;;4994916;28;20130;-70
2023/12/21 10:29:58;;;;;;;0.20;0.20;;;21.90;52.40;;;;;;4979222;28;20352;-69
2023/12/21 10:32:24;;;;;;;0.60;0.40;;;21.90;52.40;;;;;;4984521;28;20021;-69
2023/12/21 10:34:49;;;;;;;0.30;0.30;;;21.90;52.40;;;;;;4991015;28;20019;-69
2023/12/21 10:37:16;;;;;;;1.27;0.30;;;21.90;52.40;;;;;;4990728;28;20039;-69
2023/12/21 10:39:41;;;;;;;0.30;0.30;;;21.90;52.50;;;;;;4990020;28;20048;-69
2023/12/21 10:42:07;;;;;;;0.30;0.30;;;21.90;52.50;;;;;;4991008;28;20034;-69
2023/12/21 10:44:33;;;;;;;0.22;0.22;;;21.90;52.40;;;;;;4992458;28;20034;-69
2023/12/21 10:47:01;;;;;;;0.30;0.30;;;21.90;52.40;;;;;;5006862;28;20039;-69
2023/12/21 10:49:27;;;;;;;0.77;0.30;;;21.90;52.40;;;;;;4986311;28;20019;-69
2023/12/21 10:51:54;;;;;;;0.40;0.30;;;22.00;52.40;;;;;;4982586;28;20123;-66
2023/12/21 10:54:22;;;;;;;0.35;0.35;;;22.00;52.90;;;;;;4983833;28;20029;-67
2023/12/21 10:56:48;;;;;;;0.65;0.30;;;22.00;52.30;;;;;;4983218;28;20019;-66
2023/12/21 10:59:14;;;;;;;0.38;0.30;;;22.00;52.90;;;;;;4986499;28;20541;-68
2023/12/21 11:01:40;;;;;;;0.85;0.30;;;22.00;52.30;;;;;;4989678;28;20022;-69
2023/12/21 11:04:08;;;;;;;0.30;0.30;;;22.00;52.30;;;;;;5000900;28;20026;-69
2023/12/21 11:06:35;;;;;;;0.40;0.38;;;22.00;52.30;;;;;;4977084;28;20062;-69
2023/12/21 11:09:04;;;;;;;0.30;0.30;;;22.00;52.50;;;;;;4989481;28;20054;-69
2023/12/21 11:11:31;;;;;;;0.38;0.30;;;22.00;52.40;;;;;;4987436;28;20026;-69
2023/12/21 11:13:56;;;;;;;1.35;0.38;;;22.10;52.40;;;;;;4982302;28;20491;-70
2023/12/21 11:16:34;;;;;;;0.20;0.20;;;22.10;50.70;;;;;;4977961;28;20037;-70
2023/12/21 11:19:02;;;;;;;0.25;0.25;;;22.00;51.20;;;;;;4978783;28;20048;-69
2023/12/21 11:21:30;;;;;;;0.70;0.30;;;22.00;50.80;;;;;;4977449;28;20098;-71
2023/12/21 11:23:56;;;;;;;0.63;0.35;;;21.90;50.40;;;;;;4978998;28;20046;-70
2023/12/21 11:26:27;;;;;;;0.30;0.30;;;21.90;50.00;;;;;;4981563;28;20216;-70
2023/12/21 11:29:03;;;;;;;0.30;0.30;;;21.80;49.50;;;;;;4978557;28;20109;-70
2023/12/21 11:31:36;;;;;;;0.40;0.40;;;21.80;49.70;;;;;;4979381;28;20379;-70
2023/12/21 11:34:10;;;;;;;0.40;0.40;;;21.80;48.80;;;;;;4980048;28;20027;-70
2023/12/21 11:36:36;;;;;;;1.38;0.50;;;21.80;48.20;;;;;;4981955;28;20471;-70
2023/12/21 11:39:07;;;;;;;0.32;0.30;;;21.80;47.70;;;;;;4981769;28;20034;-70
2023/12/21 11:41:33;;;;;;;1.23;0.60;;;21.80;47.60;;;;;;4984266;28;20029;-70
2023/12/21 11:44:03;;;;;;;0.70;0.55;;;21.80;47.40;;;;;;4983963;28;20462;-69
2023/12/21 11:46:33;;;;;;;0.50;0.40;;;21.70;47.50;;;;;;4982420;28;20487;-71
2023/12/21 11:48:59;;;;;;;0.40;0.40;;;21.70;47.80;;;;;;4997068;28;20054;-70
2023/12/21 11:51:25;;;;;;;0.55;0.50;;;21.60;47.60;;;;;;4984152;28;20074;-70
2023/12/21 11:53:51;;;;;;;0.88;0.50;;;21.60;47.50;;;;;;4983542;28;20038;-70
2023/12/21 11:56:17;;;;;;;0.57;0.43;;;21.60;47.40;;;;;;4983257;28;20034;-70
2023/12/21 11:58:45;;;;;;;0.40;0.40;;;21.60;47.30;;;;;;4996883;28;20443;-70
2023/12/21 12:01:22;;;;;;;0.40;0.40;;;21.60;47.50;;;;;;4982073;28;20026;-70
2023/12/21 12:03:48;;;;;;;0.68;0.50;;;21.50;47.40;;;;;;4981830;28;20506;-69
2023/12/21 12:06:14;;;;;;;0.63;0.45;;;21.50;47.40;;;;;;4981167;28;20031;-69
2023/12/21 12:08:41;;;;;;;0.52;0.52;;;21.50;47.40;;;;;;4999011;28;20023;-69
2023/12/21 12:11:06;;;;;;;0.40;0.40;;;21.50;47.40;;;;;;4980403;28;20031;-69
2023/12/21 12:13:33;;;;;;;0.60;0.50;;;21.40;47.40;;;;;;4981470;28;20499;-69
2023/12/21 12:15:59;;;;;;;0.68;0.40;;;21.40;47.50;;;;;;4981277;28;20023;-69
2023/12/21 12:18:24;;;;;;;0.40;0.32;;;21.40;47.40;;;;;;4980601;28;20031;-69
2023/12/21 12:20:51;;;;;;;0.60;0.40;;;21.40;47.40;;;;;;4982663;28;20038;-69
2023/12/21 12:23:19;;;;;;;0.55;0.40;;;21.40;47.40;;;;;;4983749;28;20022;-68
2023/12/21 12:25:45;;;;;;;0.45;0.30;;;21.40;47.60;;;;;;4981749;28;20038;-69
2023/12/21 12:28:11;;;;;;;0.50;0.50;;;21.30;47.50;;;;;;4982716;28;20033;-68
2023/12/21 12:30:37;;;;;;;0.35;0.35;;;21.30;47.40;;;;;;4983465;28;20030;-67
2023/12/21 12:33:05;;;;;;;0.73;0.52;;;21.30;47.60;;;;;;4980166;28;20019;-68
2023/12/21 12:35:36;;;;;;;0.40;0.30;;;21.30;48.00;;;;;;4981325;28;20131;-68
2023/12/21 12:38:05;;;;;;;0.52;0.40;;;21.30;47.50;;;;;;4982497;28;20691;-68
2023/12/21 12:40:32;;;;;;;0.70;0.47;;;21.30;47.50;;;;;;4979968;28;20065;-66
2023/12/21 12:42:59;;;;;;;0.68;0.38;;;21.30;47.50;;;;;;4982283;28;20525;-67